createdAt,value
2019-02-14T00:01:11.978Z,15.73
2019-02-14T00:03:42.127Z,14.83
2019-02-14T00:06:12.007Z,16.53
2019-02-14T00:08:42.145Z,17.37
2019-02-14T00:11:12.543Z,15.43
2019-02-14T00:13:42.687Z,16.07
2019-02-14T00:16:12.581Z,17.23
2019-02-14T00:18:42.715Z,16.47
2019-02-14T00:21:12.658Z,15.47
2019-02-14T00:23:42.689Z,18.00
2019-02-14T00:26:12.569Z,17.37
2019-02-14T00:28:42.434Z,17.10
2019-02-14T00:31:12.352Z,16.60
2019-02-14T00:33:42.275Z,18.70
2019-02-14T00:36:12.177Z,16.10
2019-02-14T00:38:42.082Z,16.03
2019-02-14T00:41:12.081Z,17.13
2019-02-14T00:43:41.994Z,15.93
2019-02-14T00:46:11.916Z,15.60
2019-02-14T00:48:41.818Z,16.33
2019-02-14T00:51:11.706Z,16.70
2019-02-14T00:53:41.892Z,17.20
2019-02-14T00:56:12.054Z,15.00
2019-02-14T00:58:42.001Z,15.50
2019-02-14T01:01:11.896Z,15.90
2019-02-14T01:03:42.030Z,16.40
2019-02-14T01:06:11.923Z,16.63
2019-02-14T01:08:41.840Z,16.60
2019-02-14T01:11:12.046Z,17.10
2019-02-14T01:13:41.981Z,17.73
2019-02-14T01:16:11.861Z,16.77
2019-02-14T01:18:41.803Z,17.43
2019-02-14T01:21:11.806Z,17.10
2019-02-14T01:23:41.686Z,16.57
2019-02-14T01:26:11.558Z,18.00
2019-02-14T01:28:41.754Z,17.80
2019-02-14T01:31:11.709Z,18.00
2019-02-14T01:33:42.055Z,16.90
2019-02-14T01:36:12.181Z,17.90
2019-02-14T01:38:42.316Z,16.43
2019-02-14T01:41:12.227Z,14.53
2019-02-14T01:43:42.376Z,14.70
2019-02-14T01:46:12.493Z,15.53
2019-02-14T01:48:42.436Z,15.40
2019-02-14T01:51:12.585Z,16.13
2019-02-14T01:53:42.549Z,13.90
2019-02-14T01:56:12.427Z,15.33
2019-02-14T01:58:42.665Z,14.70
2019-02-14T02:01:12.702Z,14.37
2019-02-14T02:03:42.578Z,15.90
2019-02-14T02:06:12.461Z,15.60
2019-02-14T02:08:42.418Z,16.17
2019-02-14T02:11:12.477Z,16.63
2019-02-14T02:13:42.389Z,17.50
2019-02-14T02:16:12.276Z,17.00
2019-02-14T02:18:42.424Z,17.70
2019-02-14T02:21:12.651Z,16.83
2019-02-14T02:23:42.565Z,16.60
2019-02-14T02:26:12.489Z,18.00
2019-02-14T02:28:42.426Z,17.90
2019-02-14T02:31:12.346Z,18.10
2019-02-14T02:33:42.430Z,17.83
2019-02-14T02:36:12.409Z,18.23
2019-02-14T02:38:42.787Z,19.80
2019-02-14T02:41:12.700Z,19.47
2019-02-14T02:43:42.617Z,18.80
2019-02-14T02:46:12.799Z,19.33
2019-02-14T02:48:43.224Z,18.43
2019-02-14T02:51:13.227Z,17.93
2019-02-14T02:53:43.117Z,18.27
2019-02-14T02:56:13.083Z,19.20
2019-02-14T02:58:43.263Z,18.60
2019-02-14T03:01:13.206Z,19.20
2019-02-14T03:03:43.367Z,18.97
2019-02-14T03:06:13.285Z,20.60
2019-02-14T03:08:43.660Z,19.50
2019-02-14T03:11:14.021Z,18.90
2019-02-14T03:13:44.236Z,19.33
2019-02-14T03:16:14.118Z,18.57
2019-02-14T03:18:44.089Z,19.03
2019-02-14T03:21:13.961Z,21.50
2019-02-14T03:23:44.060Z,20.33
2019-02-14T03:26:13.933Z,21.23
2019-02-14T03:28:43.906Z,19.47
2019-02-14T03:31:14.010Z,20.70
2019-02-14T03:33:44.118Z,20.90
2019-02-14T03:36:19.223Z,21.80
2019-02-14T03:38:45.629Z,20.87
2019-02-14T03:41:15.498Z,21.70
2019-02-14T03:43:45.372Z,21.30
2019-02-14T03:46:15.795Z,21.57
2019-02-14T03:48:45.887Z,21.53
2019-02-14T03:51:15.841Z,21.60
2019-02-14T03:53:45.820Z,19.60
2019-02-14T03:56:15.672Z,21.47
2019-02-14T03:58:45.603Z,22.20
2019-02-14T04:01:15.489Z,21.30
2019-02-14T04:03:45.374Z,22.60
2019-02-14T04:06:15.502Z,22.40
2019-02-14T04:08:45.642Z,22.93
2019-02-14T04:11:15.605Z,20.93
2019-02-14T04:13:45.499Z,20.87
2019-02-14T04:16:15.387Z,21.83
2019-02-14T04:18:45.729Z,21.30
2019-02-14T04:21:15.593Z,19.47
2019-02-14T04:23:45.460Z,19.30
2019-02-14T04:26:15.650Z,19.40
2019-02-14T04:28:45.505Z,19.60
2019-02-14T04:31:15.390Z,21.00
2019-02-14T04:33:45.234Z,18.97
2019-02-14T04:36:15.147Z,20.10
2019-02-14T04:38:45.513Z,22.50
2019-02-14T04:41:15.398Z,19.30
2019-02-14T04:43:45.571Z,21.80
2019-02-14T04:46:15.685Z,18.80
2019-02-14T04:48:45.568Z,22.40
2019-02-14T04:51:15.463Z,21.73
2019-02-14T04:53:45.368Z,22.80
2019-02-14T04:56:15.219Z,18.03
2019-02-14T04:58:45.551Z,19.83
2019-02-14T05:01:15.707Z,20.10
2019-02-14T05:03:46.055Z,21.53
2019-02-14T05:06:16.407Z,22.00
2019-02-14T05:08:46.541Z,20.03
2019-02-14T05:11:16.442Z,21.03
2019-02-14T05:13:46.585Z,21.40
2019-02-14T05:16:16.424Z,20.97
2019-02-14T05:18:46.514Z,22.97
2019-02-14T05:21:16.643Z,22.50
2019-02-14T05:23:46.505Z,21.00
2019-02-14T05:26:16.618Z,20.87
2019-02-14T05:28:46.494Z,23.10
2019-02-14T05:31:16.368Z,22.20
2019-02-14T05:33:46.760Z,22.47
2019-02-14T05:36:16.972Z,22.53
2019-02-14T05:38:47.060Z,22.63
2019-02-14T05:41:17.173Z,22.87
2019-02-14T05:43:47.031Z,22.10
2019-02-14T05:46:17.347Z,22.33
2019-02-14T05:48:47.213Z,22.57
2019-02-14T05:51:17.312Z,23.70
2019-02-14T05:53:47.164Z,23.33
2019-02-14T05:56:17.261Z,22.70
2019-02-14T05:58:47.355Z,24.60
2019-02-14T06:01:19.108Z,22.97
2019-02-14T06:03:49.190Z,23.70
2019-02-14T06:06:19.045Z,23.80
2019-02-14T06:08:48.905Z,23.13
2019-02-14T06:11:19.057Z,25.33
2019-02-14T06:13:48.935Z,24.90
2019-02-14T06:16:18.752Z,25.07
2019-02-14T06:18:48.623Z,26.43
2019-02-14T06:21:18.780Z,25.83
2019-02-14T06:23:48.879Z,25.00
2019-02-14T06:26:18.741Z,25.53
2019-02-14T06:28:48.569Z,23.00
2019-02-14T06:31:19.131Z,23.73
2019-02-14T06:33:48.991Z,24.80
2019-02-14T06:36:18.900Z,26.03
2019-02-14T06:38:48.992Z,26.83
2019-02-14T06:41:18.846Z,24.60
2019-02-14T06:43:48.996Z,24.70
2019-02-14T06:46:18.882Z,27.40
2019-02-14T06:48:48.737Z,26.40
2019-02-14T06:51:19.065Z,27.70
2019-02-14T06:53:48.896Z,25.07
2019-02-14T06:56:18.762Z,27.30
2019-02-14T06:58:48.861Z,26.93
2019-02-14T07:01:18.943Z,26.60
2019-02-14T07:03:48.809Z,26.60
2019-02-14T07:10:06.167Z,26.53
2019-02-14T07:12:36.222Z,26.47
2019-02-14T07:15:07.860Z,26.17
2019-02-14T07:17:38.015Z,24.90
2019-02-14T07:20:11.180Z,25.00
2019-02-14T07:22:41.660Z,25.77
2019-02-14T07:25:11.992Z,26.70
2019-02-14T07:27:42.379Z,24.27
2019-02-14T07:30:16.199Z,28.90
2019-02-14T07:32:46.322Z,24.50
2019-02-14T07:35:16.603Z,26.27
2019-02-14T07:37:46.977Z,25.20
2019-02-14T07:40:17.474Z,22.40
2019-02-14T07:42:48.191Z,22.37
2019-02-14T07:45:18.161Z,23.57
2019-02-14T07:47:48.816Z,24.37
2019-02-14T07:50:19.224Z,24.40
2019-02-14T07:52:49.132Z,21.60
2019-02-14T07:55:19.462Z,23.10
2019-02-14T07:57:49.988Z,22.63
2019-02-14T08:00:20.107Z,21.03
2019-02-14T08:02:50.075Z,20.87
2019-02-14T08:05:19.995Z,22.07
2019-02-14T08:07:50.155Z,21.30
2019-02-14T08:10:20.119Z,20.37
2019-02-14T08:12:50.885Z,21.63
2019-02-14T08:15:21.549Z,21.63
2019-02-14T08:17:51.703Z,19.13
2019-02-14T08:20:21.759Z,18.57
2019-02-14T08:22:52.192Z,18.90
2019-02-14T08:25:22.377Z,21.60
2019-02-14T08:27:52.498Z,19.63
2019-02-14T08:30:22.835Z,20.50
2019-02-14T08:32:53.002Z,19.03
2019-02-14T08:35:23.418Z,20.50
2019-02-14T08:37:54.048Z,18.57
2019-02-14T08:40:25.401Z,21.37
2019-02-14T08:42:55.944Z,19.77
2019-02-14T08:45:26.132Z,19.60
2019-02-14T08:47:56.536Z,21.13
2019-02-14T08:50:26.990Z,19.70
2019-02-14T08:52:57.633Z,20.47
2019-02-14T08:55:28.280Z,16.13
2019-02-14T08:57:58.489Z,19.87
2019-02-14T09:00:28.404Z,20.13
2019-02-14T09:02:58.814Z,22.33
2019-02-14T09:05:28.983Z,21.60
2019-02-14T09:07:59.143Z,21.13
2019-02-14T09:10:29.630Z,20.80
2019-02-14T09:13:00.116Z,23.20
2019-02-14T09:15:30.972Z,22.77
2019-02-14T09:18:01.664Z,22.67
2019-02-14T09:20:32.115Z,22.80
2019-02-14T09:23:02.543Z,22.70
2019-02-14T09:25:32.743Z,18.80
2019-02-14T09:28:02.936Z,18.30
2019-02-14T09:30:33.142Z,17.50
2019-02-14T09:33:03.627Z,18.37
2019-02-14T09:35:34.118Z,17.87
2019-02-14T09:38:04.073Z,16.93
2019-02-14T09:40:34.260Z,16.73
2019-02-14T09:43:04.313Z,15.50
2019-02-14T09:45:34.720Z,15.80
2019-02-14T09:48:05.332Z,15.43
2019-02-14T09:50:35.562Z,17.60
2019-02-14T09:53:05.589Z,15.90
2019-02-14T09:55:35.506Z,17.63
2019-02-14T09:58:05.519Z,19.50
2019-02-14T10:00:36.187Z,19.00
2019-02-14T10:03:06.570Z,19.00
2019-02-14T10:05:37.032Z,20.83
2019-02-14T10:08:12.774Z,21.00
2019-02-14T10:10:39.177Z,19.37
2019-02-14T10:13:09.480Z,17.50
2019-02-14T10:15:39.750Z,19.47
2019-02-14T10:18:09.928Z,19.33
2019-02-14T10:20:40.135Z,19.00
2019-02-14T10:23:10.583Z,16.70
2019-02-14T10:25:40.763Z,17.77
2019-02-14T10:28:11.019Z,18.70
2019-02-14T10:30:40.933Z,17.50
2019-02-14T10:33:11.592Z,17.27
2019-02-14T10:35:42.252Z,15.37
2019-02-14T10:38:21.728Z,15.27
2019-02-14T10:40:44.644Z,16.00
2019-02-14T10:43:15.034Z,14.73
2019-02-14T10:45:44.993Z,13.67
2019-02-14T10:48:15.780Z,13.67
2019-02-14T10:50:45.959Z,12.77
2019-02-14T10:53:16.143Z,13.60
2019-02-14T10:55:46.387Z,12.47
2019-02-14T10:58:16.417Z,12.70
2019-02-14T11:00:46.664Z,12.10
2019-02-14T11:03:17.187Z,13.80
2019-02-14T11:05:47.327Z,12.30
2019-02-14T11:08:17.547Z,11.20
2019-02-14T11:10:47.792Z,11.87
2019-02-14T11:13:17.801Z,11.00
2019-02-14T11:15:48.235Z,11.70
2019-02-14T11:18:18.711Z,10.50
2019-02-14T11:20:49.127Z,12.27
2019-02-14T11:23:19.309Z,12.90
2019-02-14T11:25:49.526Z,13.90
2019-02-14T11:28:19.460Z,12.40
2019-02-14T11:30:49.671Z,11.87
2019-02-14T11:33:19.903Z,12.17
2019-02-14T11:35:50.105Z,11.00
2019-02-14T11:38:20.274Z,11.80
2019-02-14T11:40:50.462Z,10.23
2019-02-14T11:43:20.661Z,10.27
2019-02-14T11:45:51.067Z,10.50
2019-02-14T11:48:21.542Z,10.10
2019-02-14T11:50:51.688Z,10.27
2019-02-14T11:53:22.139Z,9.70
2019-02-14T11:55:52.600Z,7.73
2019-02-14T11:58:22.772Z,6.93
2019-02-14T12:00:52.924Z,7.43
2019-02-14T12:03:23.405Z,7.10
2019-02-14T12:05:53.338Z,6.90
2019-02-14T12:08:23.250Z,7.53
2019-02-14T12:10:53.402Z,6.10
2019-02-14T12:13:24.082Z,5.93
2019-02-14T12:15:54.304Z,5.80
2019-02-14T12:18:24.671Z,6.43
2019-02-14T12:20:55.064Z,5.00
2019-02-14T12:23:25.456Z,6.30
2019-02-14T12:25:55.909Z,5.50
2019-02-14T12:28:26.083Z,5.00
2019-02-14T12:30:56.465Z,4.20
2019-02-14T12:33:26.650Z,4.60
2019-02-14T12:35:56.568Z,4.57
2019-02-14T12:38:26.940Z,5.23
2019-02-14T12:40:57.110Z,5.10
2019-02-14T12:43:27.294Z,4.83
2019-02-14T12:45:57.819Z,4.97
2019-02-14T12:48:28.771Z,4.33
2019-02-14T12:50:58.692Z,5.00
2019-02-14T12:53:29.173Z,5.37
2019-02-14T12:55:59.542Z,5.10
2019-02-14T12:58:29.939Z,5.50
2019-02-14T13:01:00.317Z,4.00
2019-02-14T13:03:30.926Z,5.60
2019-02-14T13:06:01.354Z,5.80
2019-02-14T13:08:31.798Z,5.87
2019-02-14T13:11:02.207Z,4.60
2019-02-14T13:13:32.884Z,5.03
2019-02-14T13:16:03.660Z,5.50
2019-02-14T13:18:33.852Z,5.10
2019-02-14T13:21:04.085Z,4.83
2019-02-14T13:23:34.295Z,5.00
2019-02-14T13:26:04.613Z,5.83
2019-02-14T13:28:35.021Z,4.70
2019-02-14T13:31:05.222Z,4.50
2019-02-14T13:33:35.854Z,5.03
2019-02-14T13:36:06.823Z,4.37
2019-02-14T13:38:37.289Z,4.80
2019-02-14T13:41:07.235Z,4.73
2019-02-14T13:43:38.003Z,5.03
2019-02-14T13:46:08.393Z,4.70
2019-02-14T13:48:38.425Z,4.27
2019-02-14T13:51:08.402Z,3.90
2019-02-14T13:53:38.339Z,3.60
2019-02-14T13:56:08.269Z,4.07
2019-02-14T13:58:38.688Z,3.03
2019-02-14T14:01:09.163Z,3.50
2019-02-14T14:03:39.321Z,3.70
2019-02-14T14:06:09.502Z,4.00
2019-02-14T14:08:40.211Z,4.37
2019-02-14T14:11:10.735Z,3.40
2019-02-14T14:13:41.328Z,2.97
2019-02-14T14:16:11.504Z,3.27
2019-02-14T14:18:41.725Z,3.20
2019-02-14T14:21:12.191Z,3.37
2019-02-14T14:23:42.974Z,3.30
2019-02-14T14:26:12.941Z,2.77
2019-02-14T14:28:43.811Z,2.77
2019-02-14T14:31:13.811Z,3.33
2019-02-14T14:33:44.411Z,3.00
2019-02-14T14:36:14.555Z,2.40
2019-02-14T14:38:44.469Z,2.77
2019-02-14T14:41:15.148Z,2.47
2019-02-14T14:43:53.118Z,3.40
2019-02-14T14:46:45.305Z,2.60
2019-02-14T14:49:15.727Z,2.43
2019-02-14T14:51:45.908Z,2.40
2019-02-14T14:54:16.154Z,2.43
2019-02-14T14:56:46.558Z,2.50
2019-02-14T14:59:16.713Z,2.70
2019-02-14T15:01:47.085Z,2.10
2019-02-14T15:04:17.040Z,2.37
2019-02-14T15:06:47.204Z,2.13
2019-02-14T15:09:17.384Z,2.30
2019-02-14T15:11:47.787Z,2.43
2019-02-14T15:14:17.668Z,2.37
2019-02-14T15:16:47.819Z,3.53
2019-02-14T15:19:47.983Z,2.20
2019-02-14T15:22:18.679Z,3.03
2019-02-14T15:24:48.596Z,3.10
2019-02-14T15:27:19.022Z,2.60
2019-02-14T15:29:49.191Z,3.10
2019-02-14T15:32:19.585Z,2.50
2019-02-14T15:34:49.721Z,2.60
2019-02-14T15:37:19.608Z,2.87
2019-02-14T15:39:49.515Z,2.53
2019-02-14T15:42:19.724Z,2.43
2019-02-14T15:44:49.855Z,2.80
2019-02-14T15:47:19.796Z,3.20
2019-02-14T15:49:49.945Z,2.90
2019-02-14T15:52:19.887Z,2.67
2019-02-14T15:54:50.293Z,3.10
2019-02-14T15:57:20.700Z,3.50
2019-02-14T15:59:50.658Z,4.30
2019-02-14T16:02:21.044Z,4.27
2019-02-14T16:04:52.730Z,3.90
2019-02-14T16:07:23.061Z,4.53
2019-02-14T16:09:53.040Z,4.33
2019-02-14T16:12:23.504Z,3.97
2019-02-14T16:14:53.697Z,4.33
2019-02-14T16:17:23.821Z,3.40
2019-02-14T16:19:55.938Z,3.53
2019-02-14T16:22:30.019Z,2.83
2019-02-14T16:24:58.712Z,4.33
2019-02-14T16:27:28.881Z,3.47
2019-02-14T16:29:59.021Z,4.17
2019-02-14T16:32:29.125Z,3.40
2019-02-14T16:34:59.036Z,3.50
2019-02-14T16:37:29.207Z,4.13
2019-02-14T16:39:59.375Z,3.90
2019-02-14T16:42:30.213Z,4.63
2019-02-14T16:45:00.874Z,3.80
2019-02-14T16:47:30.979Z,3.73
2019-02-14T16:50:01.113Z,3.70
2019-02-14T16:52:31.356Z,4.40
2019-02-14T16:55:01.740Z,4.20
2019-02-14T16:57:31.657Z,3.90
2019-02-14T17:00:02.095Z,3.92
2019-02-14T17:02:31.993Z,4.40
2019-02-14T17:05:01.936Z,4.90
2019-02-14T17:07:32.126Z,4.83
2019-02-14T17:10:02.118Z,4.50
2019-02-14T17:12:32.289Z,4.30
2019-02-14T17:15:02.158Z,4.00
2019-02-14T17:17:32.045Z,4.10
2019-02-14T17:20:02.425Z,3.70
2019-02-14T17:22:32.320Z,4.70
2019-02-14T17:25:02.735Z,3.83
2019-02-14T17:27:33.147Z,3.83
2019-02-14T17:30:03.294Z,4.20
2019-02-14T17:32:33.155Z,5.87
2019-02-14T17:35:03.428Z,5.00
2019-02-14T17:37:33.332Z,4.90
2019-02-14T17:40:04.573Z,4.93
2019-02-14T17:42:34.858Z,5.13
2019-02-14T17:45:05.328Z,4.70
2019-02-14T17:47:35.564Z,5.33
2019-02-14T17:50:06.128Z,4.60
2019-02-14T17:52:36.444Z,5.73
2019-02-14T17:55:07.160Z,4.90
2019-02-14T17:57:37.058Z,4.43
2019-02-14T18:00:08.490Z,4.93
2019-02-14T18:02:38.647Z,5.03
2019-02-14T18:05:09.263Z,4.93
2019-02-14T18:07:39.821Z,4.37
2019-02-14T18:10:11.365Z,4.93
2019-02-14T18:12:43.258Z,5.00
2019-02-14T18:15:13.938Z,4.70
2019-02-14T18:17:43.862Z,5.23
2019-02-14T18:20:14.072Z,4.50
2019-02-14T18:22:44.237Z,6.03
2019-02-14T18:25:14.801Z,4.80
2019-02-14T18:27:45.607Z,6.90
2019-02-14T18:30:16.416Z,5.10
2019-02-14T18:32:46.947Z,4.97
2019-02-14T18:35:17.148Z,5.90
2019-02-14T18:37:47.562Z,6.10
2019-02-14T18:40:17.468Z,5.07
2019-02-14T18:42:47.545Z,4.70
2019-02-14T18:45:17.689Z,4.90
2019-02-14T18:47:47.893Z,6.37
2019-02-14T18:50:18.389Z,6.17
2019-02-14T18:52:48.785Z,5.90
2019-02-14T18:55:18.975Z,5.90
2019-02-14T18:57:49.413Z,5.27
2019-02-14T19:00:19.553Z,4.53
2019-02-14T19:02:49.463Z,4.67
2019-02-14T19:05:19.575Z,4.80
2019-02-14T19:07:49.705Z,4.07
2019-02-14T19:10:20.017Z,4.03
2019-02-14T19:12:50.967Z,4.37
2019-02-14T19:15:20.873Z,4.27
2019-02-14T19:17:50.833Z,4.50
2019-02-14T19:20:20.972Z,4.00
2019-02-14T19:22:51.367Z,5.20
2019-02-14T19:25:21.294Z,6.00
2019-02-14T19:27:51.466Z,9.10
2019-02-14T19:30:21.839Z,8.63
2019-02-14T19:32:51.710Z,5.70
2019-02-14T19:35:23.377Z,4.40
2019-02-14T19:37:53.991Z,4.40
2019-02-14T19:40:23.909Z,4.00
2019-02-14T19:42:54.301Z,4.30
2019-02-14T19:45:24.698Z,3.77
2019-02-14T19:47:54.662Z,4.13
2019-02-14T19:50:25.153Z,5.40
2019-02-14T19:52:55.235Z,5.00
2019-02-14T19:55:25.107Z,4.03
2019-02-14T19:57:55.746Z,5.13
2019-02-14T20:00:25.935Z,5.40
2019-02-14T20:02:56.117Z,5.53
2019-02-14T20:05:26.352Z,4.80
2019-02-14T20:07:56.526Z,4.90
2019-02-14T20:10:26.685Z,5.80
2019-02-14T20:12:56.679Z,4.93
2019-02-14T20:15:36.445Z,4.77
2019-02-14T20:17:59.519Z,4.80
2019-02-14T20:20:29.700Z,4.77
2019-02-14T20:22:59.792Z,4.77
2019-02-14T20:25:29.699Z,4.87
2019-02-14T20:28:00.085Z,4.50
2019-02-14T20:30:30.738Z,5.27
2019-02-14T20:33:04.851Z,5.57
2019-02-14T20:35:32.481Z,5.23
2019-02-14T20:38:03.134Z,5.07
2019-02-14T20:40:33.312Z,6.97
2019-02-14T20:43:03.721Z,6.13
2019-02-14T20:45:33.914Z,6.47
2019-02-14T20:48:04.184Z,6.33
2019-02-14T20:50:34.384Z,5.83
2019-02-14T20:53:04.582Z,7.67
2019-02-14T20:55:35.328Z,6.83
2019-02-14T20:58:05.530Z,6.30
2019-02-14T21:00:37.061Z,7.00
2019-02-14T21:03:07.124Z,5.77
2019-02-14T21:05:37.096Z,6.40
2019-02-14T21:08:07.350Z,7.40
2019-02-14T21:10:37.743Z,6.53
2019-02-14T21:13:07.923Z,6.80
2019-02-14T21:15:38.220Z,6.73
2019-02-14T21:18:08.896Z,6.50
2019-02-14T21:20:39.136Z,6.67
2019-02-14T21:23:09.816Z,6.80
2019-02-14T21:25:40.219Z,6.00
2019-02-14T21:28:10.443Z,6.40
2019-02-14T21:30:40.847Z,6.60
2019-02-14T21:33:10.799Z,7.00
2019-02-14T21:35:40.990Z,7.20
2019-02-14T21:38:11.138Z,6.80
2019-02-14T21:40:41.053Z,7.07
2019-02-14T21:43:10.926Z,6.83
2019-02-14T21:45:41.104Z,7.13
2019-02-14T21:48:18.396Z,6.70
2019-02-14T21:50:48.268Z,6.80
2019-02-14T21:53:18.916Z,7.07
2019-02-14T21:55:49.058Z,7.50
2019-02-14T21:58:19.757Z,6.57
2019-02-14T22:00:49.689Z,7.60
2019-02-14T22:03:19.963Z,8.27
2019-02-14T22:05:50.167Z,8.00
2019-02-14T22:08:20.597Z,7.37
2019-02-14T22:10:50.564Z,7.90
2019-02-14T22:13:20.782Z,7.47
2019-02-14T22:15:51.109Z,6.43
2019-02-14T22:18:21.601Z,8.10
2019-02-14T22:20:51.846Z,7.97
2019-02-14T22:23:22.027Z,7.20
2019-02-14T22:25:51.992Z,7.10
2019-02-14T22:28:22.156Z,7.77
2019-02-14T22:30:52.330Z,6.63
2019-02-14T22:33:22.738Z,7.60
2019-02-14T22:35:52.919Z,7.40
2019-02-14T22:38:22.893Z,7.60
2019-02-14T22:40:53.282Z,6.70
2019-02-14T22:43:24.900Z,7.17
2019-02-14T22:45:55.084Z,8.20
2019-02-14T22:48:25.762Z,7.63
2019-02-14T22:50:55.704Z,7.40
2019-02-14T22:53:25.893Z,8.10
2019-02-14T22:55:55.809Z,9.07
2019-02-14T22:58:26.166Z,9.80
2019-02-14T23:00:59.586Z,9.37
2019-02-14T23:03:29.849Z,8.53
2019-02-14T23:06:00.397Z,8.73
2019-02-14T23:08:30.623Z,8.77
2019-02-14T23:11:01.286Z,10.00
2019-02-14T23:13:31.934Z,9.03
2019-02-14T23:16:02.490Z,9.87
2019-02-14T23:18:32.697Z,9.17
2019-02-14T23:21:02.891Z,9.37
2019-02-14T23:23:33.307Z,8.97
2019-02-14T23:26:03.727Z,9.50
2019-02-14T23:28:33.956Z,9.70
2019-02-14T23:31:04.349Z,8.50
2019-02-14T23:33:34.313Z,9.40
2019-02-14T23:36:04.732Z,8.30
2019-02-14T23:38:34.956Z,8.57
2019-02-14T23:41:04.877Z,9.10
2019-02-14T23:43:34.866Z,8.50
2019-02-14T23:46:05.614Z,9.27
2019-02-14T23:48:35.839Z,8.90
2019-02-14T23:51:06.266Z,7.90
2019-02-14T23:53:36.436Z,8.77
2019-02-14T23:56:06.376Z,8.87
2019-02-14T23:58:36.543Z,7.60
